sensor_id;sensor_type;location;lat;lon;timestamp;pressure;altitude;pressure_sealevel;temperature
48003;BMP280;33768;48.578;11.574;2024-02-26T00:02:43;94711.56;;;3.42
48003;BMP280;33768;48.578;11.574;2024-02-26T00:05:47;94712.59;;;3.39
48003;BMP280;33768;48.578;11.574;2024-02-26T00:08:51;94716.72;;;3.40
48003;BMP280;33768;48.578;11.574;2024-02-26T00:11:56;94718.00;;;3.39
48003;BMP280;33768;48.578;11.574;2024-02-26T00:15:01;94724.94;;;3.34
48003;BMP280;33768;48.578;11.574;2024-02-26T00:18:05;94718.19;;;3.28
48003;BMP280;33768;48.578;11.574;2024-02-26T00:21:09;94719.75;;;3.23
48003;BMP280;33768;48.578;11.574;2024-02-26T00:24:13;94724.81;;;3.14
48003;BMP280;33768;48.578;11.574;2024-02-26T00:27:18;94724.47;;;3.05
48003;BMP280;33768;48.578;11.574;2024-02-26T00:30:22;94724.56;;;2.99
48003;BMP280;33768;48.578;11.574;2024-02-26T00:33:27;94712.22;;;2.91
48003;BMP280;33768;48.578;11.574;2024-02-26T00:36:31;94722.44;;;2.79
48003;BMP280;33768;48.578;11.574;2024-02-26T00:39:35;94712.69;;;2.77
48003;BMP280;33768;48.578;11.574;2024-02-26T00:42:39;94710.22;;;2.79
48003;BMP280;33768;48.578;11.574;2024-02-26T00:45:50;94708.78;;;2.78
48003;BMP280;33768;48.578;11.574;2024-02-26T00:48:55;94711.47;;;2.78
48003;BMP280;33768;48.578;11.574;2024-02-26T00:51:59;94715.38;;;2.77
48003;BMP280;33768;48.578;11.574;2024-02-26T00:55:04;94700.47;;;2.76
48003;BMP280;33768;48.578;11.574;2024-02-26T00:58:09;94708.94;;;2.67
48003;BMP280;33768;48.578;11.574;2024-02-26T01:01:13;94703.22;;;2.57
48003;BMP280;33768;48.578;11.574;2024-02-26T01:04:17;94703.59;;;2.48
48003;BMP280;33768;48.578;11.574;2024-02-26T01:07:21;94707.09;;;2.44
48003;BMP280;33768;48.578;11.574;2024-02-26T01:10:26;94705.34;;;2.46
48003;BMP280;33768;48.578;11.574;2024-02-26T01:13:30;94692.53;;;2.52
48003;BMP280;33768;48.578;11.574;2024-02-26T01:16:34;94684.47;;;2.52
48003;BMP280;33768;48.578;11.574;2024-02-26T01:19:39;94676.66;;;2.48
48003;BMP280;33768;48.578;11.574;2024-02-26T01:22:43;94693.94;;;2.40
48003;BMP280;33768;48.578;11.574;2024-02-26T01:25:47;94698.38;;;2.38
48003;BMP280;33768;48.578;11.574;2024-02-26T01:28:52;94700.25;;;2.43
48003;BMP280;33768;48.578;11.574;2024-02-26T01:31:56;94702.25;;;2.42
48003;BMP280;33768;48.578;11.574;2024-02-26T01:35:01;94694.16;;;2.42
48003;BMP280;33768;48.578;11.574;2024-02-26T01:38:05;94694.06;;;2.48
48003;BMP280;33768;48.578;11.574;2024-02-26T01:41:09;94700.41;;;2.50
48003;BMP280;33768;48.578;11.574;2024-02-26T01:44:13;94700.41;;;2.50
48003;BMP280;33768;48.578;11.574;2024-02-26T01:47:18;94703.50;;;2.54
48003;BMP280;33768;48.578;11.574;2024-02-26T01:50:23;94704.16;;;2.60
48003;BMP280;33768;48.578;11.574;2024-02-26T01:53:28;94700.41;;;2.50
48003;BMP280;33768;48.578;11.574;2024-02-26T01:56:33;94707.31;;;2.46
48003;BMP280;33768;48.578;11.574;2024-02-26T01:59:38;94688.34;;;2.38
48003;BMP280;33768;48.578;11.574;2024-02-26T02:02:43;94692.56;;;2.34
48003;BMP280;33768;48.578;11.574;2024-02-26T02:05:50;94693.88;;;2.27
48003;BMP280;33768;48.578;11.574;2024-02-26T02:08:55;94694.38;;;2.26
48003;BMP280;33768;48.578;11.574;2024-02-26T02:12:00;94700.31;;;2.24
48003;BMP280;33768;48.578;11.574;2024-02-26T02:15:04;94685.16;;;2.21
48003;BMP280;33768;48.578;11.574;2024-02-26T02:18:08;94688.28;;;2.25
48003;BMP280;33768;48.578;11.574;2024-02-26T02:21:12;94692.63;;;2.28
48003;BMP280;33768;48.578;11.574;2024-02-26T02:24:17;94687.78;;;2.27
48003;BMP280;33768;48.578;11.574;2024-02-26T02:27:21;94701.75;;;2.25
48003;BMP280;33768;48.578;11.574;2024-02-26T02:30:28;94696.94;;;2.18
48003;BMP280;33768;48.578;11.574;2024-02-26T02:33:34;94700.00;;;2.10
48003;BMP280;33768;48.578;11.574;2024-02-26T02:36:49;94689.16;;;2.15
48003;BMP280;33768;48.578;11.574;2024-02-26T02:39:54;94672.84;;;2.26
48003;BMP280;33768;48.578;11.574;2024-02-26T02:42:59;94658.38;;;2.29
48003;BMP280;33768;48.578;11.574;2024-02-26T02:46:04;94653.28;;;2.25
48003;BMP280;33768;48.578;11.574;2024-02-26T02:49:09;94652.22;;;2.16
48003;BMP280;33768;48.578;11.574;2024-02-26T02:52:14;94647.63;;;2.11
48003;BMP280;33768;48.578;11.574;2024-02-26T02:55:18;94665.44;;;2.14
48003;BMP280;33768;48.578;11.574;2024-02-26T02:58:23;94670.56;;;2.17
48003;BMP280;33768;48.578;11.574;2024-02-26T03:01:27;94679.63;;;2.14
48003;BMP280;33768;48.578;11.574;2024-02-26T03:04:32;94674.31;;;2.09
48003;BMP280;33768;48.578;11.574;2024-02-26T03:07:37;94682.22;;;2.07
48003;BMP280;33768;48.578;11.574;2024-02-26T03:10:42;94675.53;;;2.26
48003;BMP280;33768;48.578;11.574;2024-02-26T03:13:47;94662.22;;;2.33
48003;BMP280;33768;48.578;11.574;2024-02-26T03:16:55;94665.41;;;2.32
48003;BMP280;33768;48.578;11.574;2024-02-26T03:20:01;94663.63;;;2.21
48003;BMP280;33768;48.578;11.574;2024-02-26T03:23:05;94660.41;;;2.23
48003;BMP280;33768;48.578;11.574;2024-02-26T03:26:09;94665.09;;;2.22
48003;BMP280;33768;48.578;11.574;2024-02-26T03:29:19;94660.88;;;2.27
48003;BMP280;33768;48.578;11.574;2024-02-26T03:32:23;94647.31;;;2.32
48003;BMP280;33768;48.578;11.574;2024-02-26T03:35:27;94650.63;;;2.38
48003;BMP280;33768;48.578;11.574;2024-02-26T03:38:31;94645.97;;;2.39
48003;BMP280;33768;48.578;11.574;2024-02-26T03:41:35;94665.03;;;2.41
48003;BMP280;33768;48.578;11.574;2024-02-26T03:44:40;94666.19;;;2.45
48003;BMP280;33768;48.578;11.574;2024-02-26T03:47:44;94669.97;;;2.55
48003;BMP280;33768;48.578;11.574;2024-02-26T03:50:48;94666.47;;;2.60
48003;BMP280;33768;48.578;11.574;2024-02-26T03:53:52;94659.09;;;2.60
48003;BMP280;33768;48.578;11.574;2024-02-26T03:56:56;94657.56;;;2.65
48003;BMP280;33768;48.578;11.574;2024-02-26T04:00:00;94654.13;;;2.64
48003;BMP280;33768;48.578;11.574;2024-02-26T04:03:05;94661.91;;;2.68
48003;BMP280;33768;48.578;11.574;2024-02-26T04:06:09;94660.16;;;2.70
48003;BMP280;33768;48.578;11.574;2024-02-26T04:09:18;94663.78;;;2.73
48003;BMP280;33768;48.578;11.574;2024-02-26T04:12:22;94661.28;;;2.75
48003;BMP280;33768;48.578;11.574;2024-02-26T04:15:26;94671.06;;;2.78
48003;BMP280;33768;48.578;11.574;2024-02-26T04:18:32;94664.63;;;2.80
48003;BMP280;33768;48.578;11.574;2024-02-26T04:21:36;94670.25;;;2.82
48003;BMP280;33768;48.578;11.574;2024-02-26T04:24:40;94671.06;;;2.78
48003;BMP280;33768;48.578;11.574;2024-02-26T04:27:45;94683.59;;;2.75
48003;BMP280;33768;48.578;11.574;2024-02-26T04:30:50;94671.34;;;2.74
48003;BMP280;33768;48.578;11.574;2024-02-26T04:33:54;94672.59;;;2.73
48003;BMP280;33768;48.578;11.574;2024-02-26T04:36:59;94680.69;;;2.73
48003;BMP280;33768;48.578;11.574;2024-02-26T04:40:03;94691.16;;;2.77
48003;BMP280;33768;48.578;11.574;2024-02-26T04:43:08;94689.28;;;2.84
48003;BMP280;33768;48.578;11.574;2024-02-26T04:46:12;94682.47;;;2.83
48003;BMP280;33768;48.578;11.574;2024-02-26T04:49:16;94684.94;;;2.81
48003;BMP280;33768;48.578;11.574;2024-02-26T04:52:21;94684.22;;;2.81
48003;BMP280;33768;48.578;11.574;2024-02-26T04:55:25;94696.97;;;2.80
48003;BMP280;33768;48.578;11.574;2024-02-26T04:58:29;94702.97;;;2.86
48003;BMP280;33768;48.578;11.574;2024-02-26T05:01:34;94697.09;;;2.88
48003;BMP280;33768;48.578;11.574;2024-02-26T05:04:38;94692.53;;;2.83
48003;BMP280;33768;48.578;11.574;2024-02-26T05:07:42;94696.25;;;2.80
48003;BMP280;33768;48.578;11.574;2024-02-26T05:10:47;94684.22;;;2.81
48003;BMP280;33768;48.578;11.574;2024-02-26T05:13:51;94691.25;;;2.84
48003;BMP280;33768;48.578;11.574;2024-02-26T05:16:55;94681.22;;;2.84
48003;BMP280;33768;48.578;11.574;2024-02-26T05:20:00;94689.81;;;2.83
48003;BMP280;33768;48.578;11.574;2024-02-26T05:23:04;94689.09;;;2.82
48003;BMP280;33768;48.578;11.574;2024-02-26T05:26:08;94676.13;;;2.81
48003;BMP280;33768;48.578;11.574;2024-02-26T05:29:12;94675.50;;;2.75
48003;BMP280;33768;48.578;11.574;2024-02-26T05:32:16;94681.19;;;2.72
48003;BMP280;33768;48.578;11.574;2024-02-26T05:35:20;94686.38;;;2.70
48003;BMP280;33768;48.578;11.574;2024-02-26T05:38:24;94693.53;;;2.67
48003;BMP280;33768;48.578;11.574;2024-02-26T05:41:29;94689.34;;;2.66
48003;BMP280;33768;48.578;11.574;2024-02-26T05:44:32;94694.34;;;2.62
48003;BMP280;33768;48.578;11.574;2024-02-26T05:47:37;94696.81;;;2.60
48003;BMP280;33768;48.578;11.574;2024-02-26T05:50:46;94693.16;;;2.58
48003;BMP280;33768;48.578;11.574;2024-02-26T05:53:50;94702.47;;;2.57
48003;BMP280;33768;48.578;11.574;2024-02-26T05:56:58;94700.00;;;2.59
48003;BMP280;33768;48.578;11.574;2024-02-26T06:00:02;94717.63;;;2.60
48003;BMP280;33768;48.578;11.574;2024-02-26T06:03:18;94724.97;;;2.59
48003;BMP280;33768;48.578;11.574;2024-02-26T06:06:22;94728.41;;;2.60
48003;BMP280;33768;48.578;11.574;2024-02-26T06:09:27;94737.69;;;2.59
48003;BMP280;33768;48.578;11.574;2024-02-26T06:12:31;94736.25;;;2.58
48003;BMP280;33768;48.578;11.574;2024-02-26T06:15:37;94735.31;;;2.55
48003;BMP280;33768;48.578;11.574;2024-02-26T06:18:41;94736.03;;;2.56
48003;BMP280;33768;48.578;11.574;2024-02-26T06:21:45;94734.59;;;2.55
48003;BMP280;33768;48.578;11.574;2024-02-26T06:24:50;94747.75;;;2.58
48003;BMP280;33768;48.578;11.574;2024-02-26T06:27:54;94747.25;;;2.60
48003;BMP280;33768;48.578;11.574;2024-02-26T06:30:59;94746.44;;;2.65
48003;BMP280;33768;48.578;11.574;2024-02-26T06:34:03;94748.78;;;3.30
48003;BMP280;33768;48.578;11.574;2024-02-26T06:37:08;94755.13;;;3.45
48003;BMP280;33768;48.578;11.574;2024-02-26T06:40:12;94760.72;;;3.47
48003;BMP280;33768;48.578;11.574;2024-02-26T06:43:16;94763.00;;;3.43
48003;BMP280;33768;48.578;11.574;2024-02-26T06:46:20;94763.94;;;3.33
48003;BMP280;33768;48.578;11.574;2024-02-26T06:49:25;94779.16;;;3.31
48003;BMP280;33768;48.578;11.574;2024-02-26T06:52:29;94781.44;;;3.27
48003;BMP280;33768;48.578;11.574;2024-02-26T06:55:33;94786.81;;;3.27
48003;BMP280;33768;48.578;11.574;2024-02-26T06:58:38;94791.38;;;3.19
48003;BMP280;33768;48.578;11.574;2024-02-26T07:01:42;94792.31;;;3.21
48003;BMP280;33768;48.578;11.574;2024-02-26T07:04:46;94796.38;;;3.28
48003;BMP280;33768;48.578;11.574;2024-02-26T07:07:51;94791.19;;;3.30
48003;BMP280;33768;48.578;11.574;2024-02-26T07:10:55;94798.56;;;3.29
48003;BMP280;33768;48.578;11.574;2024-02-26T07:13:59;94794.03;;;3.50
48003;BMP280;33768;48.578;11.574;2024-02-26T07:17:03;94809.09;;;3.71
48003;BMP280;33768;48.578;11.574;2024-02-26T07:20:08;94811.38;;;3.93
48003;BMP280;33768;48.578;11.574;2024-02-26T07:23:12;94812.22;;;4.13
48003;BMP280;33768;48.578;11.574;2024-02-26T07:26:17;94811.38;;;4.31
48003;BMP280;33768;48.578;11.574;2024-02-26T07:29:22;94812.91;;;4.39
48003;BMP280;33768;48.578;11.574;2024-02-26T07:32:26;94815.63;;;4.39
48003;BMP280;33768;48.578;11.574;2024-02-26T07:35:30;94820.28;;;4.52
48003;BMP280;33768;48.578;11.574;2024-02-26T07:38:36;94818.06;;;4.50
48003;BMP280;33768;48.578;11.574;2024-02-26T07:41:40;94817.88;;;4.61
48003;BMP280;33768;48.578;11.574;2024-02-26T07:44:44;94828.09;;;4.75
48003;BMP280;33768;48.578;11.574;2024-02-26T07:47:48;94834.84;;;4.82
48003;BMP280;33768;48.578;11.574;2024-02-26T07:50:52;94836.88;;;4.89
48003;BMP280;33768;48.578;11.574;2024-02-26T07:53:57;94838.81;;;5.01
48003;BMP280;33768;48.578;11.574;2024-02-26T07:57:01;94839.81;;;5.11
48003;BMP280;33768;48.578;11.574;2024-02-26T08:00:08;94828.66;;;5.27
48003;BMP280;33768;48.578;11.574;2024-02-26T08:03:13;94827.03;;;5.52
48003;BMP280;33768;48.578;11.574;2024-02-26T08:06:19;94837.28;;;5.66
48003;BMP280;33768;48.578;11.574;2024-02-26T08:09:23;94834.72;;;5.81
48003;BMP280;33768;48.578;11.574;2024-02-26T08:12:27;94830.75;;;6.09
48003;BMP280;33768;48.578;11.574;2024-02-26T08:15:32;94839.81;;;6.47
48003;BMP280;33768;48.578;11.574;2024-02-26T08:18:37;94831.97;;;6.71
48003;BMP280;33768;48.578;11.574;2024-02-26T08:21:43;94824.69;;;6.58
48003;BMP280;33768;48.578;11.574;2024-02-26T08:24:49;94830.84;;;6.24
48003;BMP280;33768;48.578;11.574;2024-02-26T08:27:53;94842.06;;;6.28
48003;BMP280;33768;48.578;11.574;2024-02-26T08:30:57;94829.47;;;6.38
48003;BMP280;33768;48.578;11.574;2024-02-26T08:34:03;94816.47;;;6.09
48003;BMP280;33768;48.578;11.574;2024-02-26T08:37:07;94806.78;;;5.86
48003;BMP280;33768;48.578;11.574;2024-02-26T08:40:11;94799.56;;;5.68
48003;BMP280;33768;48.578;11.574;2024-02-26T08:43:15;94796.88;;;5.68
48003;BMP280;33768;48.578;11.574;2024-02-26T08:46:19;94801.44;;;5.73
48003;BMP280;33768;48.578;11.574;2024-02-26T08:49:23;94801.00;;;5.89
48003;BMP280;33768;48.578;11.574;2024-02-26T08:52:27;94808.31;;;6.01
48003;BMP280;33768;48.578;11.574;2024-02-26T08:55:31;94806.22;;;6.15
48003;BMP280;33768;48.578;11.574;2024-02-26T08:58:36;94789.47;;;6.23
48003;BMP280;33768;48.578;11.574;2024-02-26T09:01:40;94797.53;;;6.44
48003;BMP280;33768;48.578;11.574;2024-02-26T09:08:41;94799.81;;;6.82
48003;BMP280;33768;48.578;11.574;2024-02-26T09:11:45;94789.50;;;6.73
48003;BMP280;33768;48.578;11.574;2024-02-26T09:14:49;94805.06;;;6.80
48003;BMP280;33768;48.578;11.574;2024-02-26T09:17:53;94825.38;;;7.01
48003;BMP280;33768;48.578;11.574;2024-02-26T09:20:57;94845.31;;;7.18
48003;BMP280;33768;48.578;11.574;2024-02-26T09:24:02;94857.44;;;7.25
48003;BMP280;33768;48.578;11.574;2024-02-26T09:27:08;94869.03;;;7.33
48003;BMP280;33768;48.578;11.574;2024-02-26T09:30:13;94884.81;;;7.49
48003;BMP280;33768;48.578;11.574;2024-02-26T09:33:18;94883.03;;;7.66
48003;BMP280;33768;48.578;11.574;2024-02-26T09:36:23;94882.69;;;7.84
48003;BMP280;33768;48.578;11.574;2024-02-26T09:39:28;94887.03;;;8.02
48003;BMP280;33768;48.578;11.574;2024-02-26T09:42:34;94881.81;;;8.19
48003;BMP280;33768;48.578;11.574;2024-02-26T09:45:38;94872.91;;;8.33
48003;BMP280;33768;48.578;11.574;2024-02-26T09:48:44;94873.97;;;8.52
48003;BMP280;33768;48.578;11.574;2024-02-26T09:51:49;94879.69;;;8.71
48003;BMP280;33768;48.578;11.574;2024-02-26T09:54:53;94873.88;;;8.82
48003;BMP280;33768;48.578;11.574;2024-02-26T09:57:57;94882.91;;;8.92
48003;BMP280;33768;48.578;11.574;2024-02-26T10:01:02;94880.91;;;9.00
48003;BMP280;33768;48.578;11.574;2024-02-26T10:04:08;94871.88;;;8.82
48003;BMP280;33768;48.578;11.574;2024-02-26T10:07:14;94872.25;;;8.79
48003;BMP280;33768;48.578;11.574;2024-02-26T10:10:19;94873.34;;;8.76
48003;BMP280;33768;48.578;11.574;2024-02-26T10:13:23;94865.47;;;9.02
48003;BMP280;33768;48.578;11.574;2024-02-26T10:16:28;94863.81;;;8.99
48003;BMP280;33768;48.578;11.574;2024-02-26T10:19:32;94857.78;;;9.15
48003;BMP280;33768;48.578;11.574;2024-02-26T10:22:36;94863.22;;;9.47
48003;BMP280;33768;48.578;11.574;2024-02-26T10:25:53;94870.53;;;9.68
48003;BMP280;33768;48.578;11.574;2024-02-26T10:28:59;94870.50;;;9.76
48003;BMP280;33768;48.578;11.574;2024-02-26T10:32:04;94860.22;;;9.60
48003;BMP280;33768;48.578;11.574;2024-02-26T10:35:09;94857.19;;;9.56
48003;BMP280;33768;48.578;11.574;2024-02-26T10:38:13;94863.25;;;9.71
48003;BMP280;33768;48.578;11.574;2024-02-26T10:41:22;94837.97;;;10.02
48003;BMP280;33768;48.578;11.574;2024-02-26T10:44:26;94838.75;;;9.95
48003;BMP280;33768;48.578;11.574;2024-02-26T10:47:30;94854.50;;;9.72
48003;BMP280;33768;48.578;11.574;2024-02-26T10:50:35;94852.72;;;9.67
48003;BMP280;33768;48.578;11.574;2024-02-26T10:53:40;94851.50;;;9.61
48003;BMP280;33768;48.578;11.574;2024-02-26T10:56:46;94851.44;;;9.44
48003;BMP280;33768;48.578;11.574;2024-02-26T10:59:53;94844.56;;;9.43
48003;BMP280;33768;48.578;11.574;2024-02-26T11:02:58;94841.84;;;9.43
48003;BMP280;33768;48.578;11.574;2024-02-26T11:06:05;94851.03;;;9.55
48003;BMP280;33768;48.578;11.574;2024-02-26T11:09:15;94840.56;;;9.68
48003;BMP280;33768;48.578;11.574;2024-02-26T11:12:22;94831.88;;;9.94
48003;BMP280;33768;48.578;11.574;2024-02-26T11:15:28;94831.09;;;10.18
48003;BMP280;33768;48.578;11.574;2024-02-26T11:18:33;94840.66;;;10.26
48003;BMP280;33768;48.578;11.574;2024-02-26T11:21:38;94841.25;;;10.41
48003;BMP280;33768;48.578;11.574;2024-02-26T11:24:44;94845.66;;;10.70
48003;BMP280;33768;48.578;11.574;2024-02-26T11:27:52;94848.38;;;10.87
48003;BMP280;33768;48.578;11.574;2024-02-26T11:30:58;94853.16;;;11.13
48003;BMP280;33768;48.578;11.574;2024-02-26T11:34:03;94858.69;;;11.22
48003;BMP280;33768;48.578;11.574;2024-02-26T11:37:14;94847.91;;;11.41
48003;BMP280;33768;48.578;11.574;2024-02-26T11:40:19;94847.72;;;11.56
48003;BMP280;33768;48.578;11.574;2024-02-26T11:43:44;94850.41;;;11.82
48003;BMP280;33768;48.578;11.574;2024-02-26T11:46:49;94856.31;;;11.78
48003;BMP280;33768;48.578;11.574;2024-02-26T11:49:54;94859.47;;;11.84
48003;BMP280;33768;48.578;11.574;2024-02-26T11:53:30;94859.47;;;12.19
48003;BMP280;33768;48.578;11.574;2024-02-26T11:56:40;94839.38;;;12.43
48003;BMP280;33768;48.578;11.574;2024-02-26T11:59:44;94845.47;;;12.60
48003;BMP280;33768;48.578;11.574;2024-02-26T12:02:52;94851.97;;;13.02
48003;BMP280;33768;48.578;11.574;2024-02-26T12:06:04;94861.91;;;13.26
48003;BMP280;33768;48.578;11.574;2024-02-26T12:09:10;94856.28;;;13.24
48003;BMP280;33768;48.578;11.574;2024-02-26T12:12:18;94861.78;;;12.86
48003;BMP280;33768;48.578;11.574;2024-02-26T12:15:23;94860.03;;;12.82
48003;BMP280;33768;48.578;11.574;2024-02-26T12:18:28;94855.00;;;12.87
48003;BMP280;33768;48.578;11.574;2024-02-26T12:21:37;94854.88;;;13.23
48003;BMP280;33768;48.578;11.574;2024-02-26T12:24:43;94858.81;;;13.59
48003;BMP280;33768;48.578;11.574;2024-02-26T12:27:48;94852.13;;;13.81
48003;BMP280;33768;48.578;11.574;2024-02-26T12:30:52;94863.25;;;13.74
48003;BMP280;33768;48.578;11.574;2024-02-26T12:33:56;94861.66;;;13.80
48003;BMP280;33768;48.578;11.574;2024-02-26T12:37:00;94855.28;;;13.87
48003;BMP280;33768;48.578;11.574;2024-02-26T12:40:06;94850.44;;;14.36
48003;BMP280;33768;48.578;11.574;2024-02-26T12:43:12;94839.00;;;14.70
48003;BMP280;33768;48.578;11.574;2024-02-26T12:46:18;94844.22;;;14.45
48003;BMP280;33768;48.578;11.574;2024-02-26T12:49:22;94858.44;;;13.93
48003;BMP280;33768;48.578;11.574;2024-02-26T12:52:26;94860.13;;;14.07
48003;BMP280;33768;48.578;11.574;2024-02-26T12:55:31;94859.03;;;14.51
48003;BMP280;33768;48.578;11.574;2024-02-26T12:58:39;94862.09;;;14.46
48003;BMP280;33768;48.578;11.574;2024-02-26T13:01:44;94864.78;;;14.35
48003;BMP280;33768;48.578;11.574;2024-02-26T13:04:48;94859.66;;;14.20
48003;BMP280;33768;48.578;11.574;2024-02-26T13:07:53;94870.72;;;13.82
48003;BMP280;33768;48.578;11.574;2024-02-26T13:10:58;94858.16;;;13.89
48003;BMP280;33768;48.578;11.574;2024-02-26T13:14:02;94850.03;;;13.51
48003;BMP280;33768;48.578;11.574;2024-02-26T13:17:08;94857.81;;;13.45
48003;BMP280;33768;48.578;11.574;2024-02-26T13:20:12;94856.53;;;13.46
48003;BMP280;33768;48.578;11.574;2024-02-26T13:23:17;94855.06;;;13.55
48003;BMP280;33768;48.578;11.574;2024-02-26T13:26:22;94863.19;;;13.44
48003;BMP280;33768;48.578;11.574;2024-02-26T13:29:27;94867.50;;;13.37
48003;BMP280;33768;48.578;11.574;2024-02-26T13:32:33;94873.75;;;13.19
48003;BMP280;33768;48.578;11.574;2024-02-26T13:35:38;94868.22;;;13.38
48003;BMP280;33768;48.578;11.574;2024-02-26T13:38:51;94865.78;;;13.42
48003;BMP280;33768;48.578;11.574;2024-02-26T13:41:55;94865.63;;;13.30
48003;BMP280;33768;48.578;11.574;2024-02-26T13:45:01;94874.16;;;13.44
48003;BMP280;33768;48.578;11.574;2024-02-26T13:48:08;94879.88;;;13.57
48003;BMP280;33768;48.578;11.574;2024-02-26T13:51:13;94877.75;;;13.46
48003;BMP280;33768;48.578;11.574;2024-02-26T13:54:17;94873.75;;;13.28
48003;BMP280;33768;48.578;11.574;2024-02-26T13:57:21;94875.88;;;13.30
48003;BMP280;33768;48.578;11.574;2024-02-26T14:00:27;94880.22;;;13.23
48003;BMP280;33768;48.578;11.574;2024-02-26T14:03:31;94887.13;;;13.15
48003;BMP280;33768;48.578;11.574;2024-02-26T14:06:35;94889.59;;;13.20
48003;BMP280;33768;48.578;11.574;2024-02-26T14:09:39;94877.94;;;13.01
48003;BMP280;33768;48.578;11.574;2024-02-26T14:12:43;94867.09;;;12.75
48003;BMP280;33768;48.578;11.574;2024-02-26T14:15:49;94878.00;;;12.66
48003;BMP280;33768;48.578;11.574;2024-02-26T14:18:53;94879.81;;;12.45
48003;BMP280;33768;48.578;11.574;2024-02-26T14:21:57;94882.53;;;12.26
48003;BMP280;33768;48.578;11.574;2024-02-26T14:25:01;94877.34;;;12.20
48003;BMP280;33768;48.578;11.574;2024-02-26T14:28:05;94880.19;;;12.13
48003;BMP280;33768;48.578;11.574;2024-02-26T14:31:09;94883.63;;;12.14
48003;BMP280;33768;48.578;11.574;2024-02-26T14:34:14;94888.22;;;12.11
48003;BMP280;33768;48.578;11.574;2024-02-26T14:37:18;94898.03;;;12.14
48003;BMP280;33768;48.578;11.574;2024-02-26T14:40:22;94897.47;;;12.16
48003;BMP280;33768;48.578;11.574;2024-02-26T14:43:26;94901.63;;;12.17
48003;BMP280;33768;48.578;11.574;2024-02-26T14:46:30;94911.25;;;12.08
48003;BMP280;33768;48.578;11.574;2024-02-26T14:49:35;94915.00;;;12.13
48003;BMP280;33768;48.578;11.574;2024-02-26T14:52:38;94921.41;;;11.98
48003;BMP280;33768;48.578;11.574;2024-02-26T14:55:43;94914.78;;;11.92
48003;BMP280;33768;48.578;11.574;2024-02-26T14:58:46;94924.94;;;11.82
48003;BMP280;33768;48.578;11.574;2024-02-26T15:01:51;94927.06;;;11.74
48003;BMP280;33768;48.578;11.574;2024-02-26T15:04:55;94931.00;;;11.64
48003;BMP280;33768;48.578;11.574;2024-02-26T15:07:59;94931.75;;;11.64
48003;BMP280;33768;48.578;11.574;2024-02-26T15:11:03;94933.69;;;11.55
48003;BMP280;33768;48.578;11.574;2024-02-26T15:14:07;94933.31;;;11.41
48003;BMP280;33768;48.578;11.574;2024-02-26T15:17:11;94935.38;;;11.33
48003;BMP280;33768;48.578;11.574;2024-02-26T15:20:17;94945.28;;;11.29
48003;BMP280;33768;48.578;11.574;2024-02-26T15:23:21;94939.31;;;11.23
48003;BMP280;33768;48.578;11.574;2024-02-26T15:26:25;94944.47;;;11.19
48003;BMP280;33768;48.578;11.574;2024-02-26T15:29:30;94940.69;;;11.15
48003;BMP280;33768;48.578;11.574;2024-02-26T15:32:35;94951.53;;;11.05
48003;BMP280;33768;48.578;11.574;2024-02-26T15:35:40;94955.63;;;10.97
48003;BMP280;33768;48.578;11.574;2024-02-26T15:38:49;94957.56;;;10.87
48003;BMP280;33768;48.578;11.574;2024-02-26T15:41:54;94961.31;;;10.75
48003;BMP280;33768;48.578;11.574;2024-02-26T15:44:58;94959.94;;;10.66
48003;BMP280;33768;48.578;11.574;2024-02-26T15:48:02;94968.34;;;10.61
48003;BMP280;33768;48.578;11.574;2024-02-26T15:51:06;94970.19;;;10.59
48003;BMP280;33768;48.578;11.574;2024-02-26T15:54:10;94981.81;;;10.59
48003;BMP280;33768;48.578;11.574;2024-02-26T15:57:15;94977.84;;;10.53
48003;BMP280;33768;48.578;11.574;2024-02-26T16:00:21;94980.59;;;10.53
48003;BMP280;33768;48.578;11.574;2024-02-26T16:03:25;94981.16;;;10.51
48003;BMP280;33768;48.578;11.574;2024-02-26T16:09:40;94981.22;;;10.44
48003;BMP280;33768;48.578;11.574;2024-02-26T16:12:48;94978.56;;;10.36
48003;BMP280;33768;48.578;11.574;2024-02-26T16:16:01;94982.22;;;10.31
48003;BMP280;33768;48.578;11.574;2024-02-26T16:19:12;94978.59;;;10.29
48003;BMP280;33768;48.578;11.574;2024-02-26T16:22:17;94981.56;;;10.24
48003;BMP280;33768;48.578;11.574;2024-02-26T16:25:21;94976.38;;;10.11
48003;BMP280;33768;48.578;11.574;2024-02-26T16:28:25;94982.59;;;10.04
48003;BMP280;33768;48.578;11.574;2024-02-26T16:31:30;94986.06;;;9.97
48003;BMP280;33768;48.578;11.574;2024-02-26T16:34:34;94993.19;;;9.93
48003;BMP280;33768;48.578;11.574;2024-02-26T16:37:39;94994.47;;;9.84
48003;BMP280;33768;48.578;11.574;2024-02-26T16:40:43;94990.69;;;9.80
48003;BMP280;33768;48.578;11.574;2024-02-26T16:43:47;94992.72;;;9.72
48003;BMP280;33768;48.578;11.574;2024-02-26T16:46:51;94998.56;;;9.68
48003;BMP280;33768;48.578;11.574;2024-02-26T16:49:55;94996.59;;;9.62
48003;BMP280;33768;48.578;11.574;2024-02-26T16:53:00;94996.22;;;9.65
48003;BMP280;33768;48.578;11.574;2024-02-26T16:56:09;94999.66;;;9.66
48003;BMP280;33768;48.578;11.574;2024-02-26T16:59:14;94997.31;;;9.62
48003;BMP280;33768;48.578;11.574;2024-02-26T17:07:01;95014.44;;;9.48
48003;BMP280;33768;48.578;11.574;2024-02-26T17:10:06;95010.47;;;9.41
48003;BMP280;33768;48.578;11.574;2024-02-26T17:13:10;95009.94;;;9.36
48003;BMP280;33768;48.578;11.574;2024-02-26T17:16:16;95004.13;;;9.32
48003;BMP280;33768;48.578;11.574;2024-02-26T17:19:21;95009.25;;;9.28
48003;BMP280;33768;48.578;11.574;2024-02-26T17:22:25;95015.25;;;9.19
48003;BMP280;33768;48.578;11.574;2024-02-26T17:25:30;95008.38;;;9.18
48003;BMP280;33768;48.578;11.574;2024-02-26T17:28:39;95010.19;;;9.15
48003;BMP280;33768;48.578;11.574;2024-02-26T17:31:46;95015.63;;;9.15
48003;BMP280;33768;48.578;11.574;2024-02-26T17:34:50;95020.38;;;9.15
48003;BMP280;33768;48.578;11.574;2024-02-26T17:37:54;95020.38;;;9.15
48003;BMP280;33768;48.578;11.574;2024-02-26T17:41:00;95035.94;;;9.14
48003;BMP280;33768;48.578;11.574;2024-02-26T17:44:05;95027.63;;;9.12
48003;BMP280;33768;48.578;11.574;2024-02-26T17:47:09;95038.13;;;9.08
48003;BMP280;33768;48.578;11.574;2024-02-26T17:50:13;95042.50;;;9.04
48003;BMP280;33768;48.578;11.574;2024-02-26T17:53:17;95049.94;;;9.04